createdAt,value
2019-04-10T00:04:04.925Z,109.61
2019-04-10T00:09:12.847Z,95.74
2019-04-10T00:14:22.008Z,90.27
2019-04-10T00:19:31.093Z,84.67
2019-04-10T00:24:40.205Z,91.96
2019-04-10T00:29:49.289Z,84.00
2019-04-10T00:34:58.556Z,86.09
2019-04-10T00:40:07.903Z,83.91
2019-04-10T00:45:17.388Z,78.27
2019-04-10T00:50:25.029Z,82.95
2019-04-10T00:55:34.154Z,83.04
2019-04-10T01:00:43.436Z,82.63
2019-04-10T01:05:52.531Z,82.55
2019-04-10T01:11:01.596Z,85.25
2019-04-10T01:16:11.324Z,86.71
2019-04-10T01:21:19.987Z,85.61
2019-04-10T01:26:28.735Z,81.76
2019-04-10T01:31:37.269Z,87.64
2019-04-10T01:36:46.009Z,81.64
2019-04-10T01:41:54.451Z,83.41
2019-04-10T01:47:04.418Z,82.35
2019-04-10T01:52:12.949Z,83.32
2019-04-10T01:57:20.656Z,84.36
2019-04-10T02:02:29.833Z,80.22
2019-04-10T02:07:38.996Z,85.50
2019-04-10T02:12:48.082Z,71.70
2019-04-10T02:17:57.339Z,74.30
2019-04-10T02:23:06.541Z,109.37
2019-04-10T02:28:15.822Z,108.22
2019-04-10T02:33:25.458Z,67.78
2019-04-10T02:38:49.296Z,109.58
2019-04-10T02:43:43.024Z,69.77
2019-04-10T02:48:51.987Z,111.13
2019-04-10T02:54:00.433Z,114.70
2019-04-10T02:59:09.399Z,112.46
2019-04-10T03:04:18.346Z,114.18
2019-04-10T03:09:41.503Z,112.56
2019-04-10T03:14:34.715Z,115.14
2019-04-10T03:19:43.742Z,114.03
2019-04-10T03:24:52.828Z,112.74
2019-04-10T03:30:03.008Z,113.36
2019-04-10T03:35:10.672Z,109.56
2019-04-10T03:40:19.850Z,111.61
2019-04-10T03:45:28.945Z,111.29
2019-04-10T03:50:38.096Z,113.38
2019-04-10T03:55:47.352Z,112.20
2019-04-10T04:00:56.557Z,111.62
2019-04-10T04:06:05.627Z,112.63
2019-04-10T04:11:15.611Z,113.19
2019-04-10T04:16:23.488Z,112.54
2019-04-10T04:21:32.625Z,113.20
2019-04-10T04:26:41.774Z,113.44
2019-04-10T04:31:51.087Z,113.94
2019-04-10T04:37:00.398Z,111.49
2019-04-10T04:42:09.351Z,63.88
2019-04-10T04:47:18.436Z,104.33
2019-04-10T04:52:27.927Z,108.34
2019-04-10T04:57:38.107Z,60.14
2019-04-10T05:02:45.676Z,104.98
2019-04-10T05:08:00.075Z,63.49
2019-04-10T05:13:04.042Z,108.48
2019-04-10T05:18:12.444Z,109.43
2019-04-10T05:23:20.719Z,110.27
2019-04-10T05:28:30.971Z,112.60
2019-04-10T05:33:39.073Z,110.44
2019-04-10T05:38:48.289Z,110.20
2019-04-10T05:43:57.361Z,110.73
2019-04-10T05:49:06.762Z,107.03
2019-04-10T05:54:15.271Z,109.29
2019-04-10T05:59:24.381Z,103.37
2019-04-10T06:04:33.664Z,103.09
2019-04-10T06:09:54.065Z,68.23
2019-04-10T06:14:52.787Z,70.26
2019-04-10T06:20:00.792Z,107.31
2019-04-10T06:25:11.712Z,112.24
2019-04-10T06:30:19.450Z,109.92
2019-04-10T06:35:28.215Z,103.64
2019-04-10T06:40:35.670Z,72.19
2019-04-10T06:45:46.100Z,109.33
2019-04-10T06:50:52.222Z,111.33
2019-04-10T06:56:01.390Z,108.25
2019-04-10T07:01:10.524Z,100.58
2019-04-10T07:06:22.332Z,100.49
2019-04-10T07:11:30.743Z,98.20
2019-04-10T07:16:37.345Z,97.36
2019-04-10T07:21:45.654Z,72.24
2019-04-10T07:26:55.257Z,111.66
2019-04-10T07:32:07.809Z,114.34
2019-04-10T07:37:14.773Z,72.52
2019-04-10T07:42:29.469Z,110.51
2019-04-10T07:47:29.505Z,114.95
2019-04-10T07:52:38.609Z,112.32
2019-04-10T07:57:49.978Z,115.00
2019-04-10T08:02:57.489Z,108.74
2019-04-10T08:08:05.388Z,99.35
2019-04-10T08:13:14.503Z,98.70
2019-04-10T08:18:23.689Z,98.79
2019-04-10T08:23:33.770Z,96.84
2019-04-10T08:28:41.509Z,98.91
2019-04-10T08:33:50.617Z,95.70
2019-04-10T08:38:59.798Z,98.89
2019-04-10T08:44:08.852Z,104.02
2019-04-10T08:49:18.412Z,68.61
2019-04-10T08:54:26.662Z,109.09
2019-04-10T08:59:36.901Z,67.67
2019-04-10T09:04:44.730Z,108.48
2019-04-10T09:09:54.155Z,68.25
2019-04-10T09:15:02.499Z,106.78
2019-04-10T09:20:11.495Z,110.54
2019-04-10T09:25:20.669Z,110.44
2019-04-10T09:30:30.903Z,110.78
2019-04-10T09:35:38.535Z,112.13
2019-04-10T09:40:48.722Z,67.03
2019-04-10T09:45:56.336Z,108.40
2019-04-10T09:51:05.529Z,109.08
2019-04-10T09:56:14.592Z,111.24
2019-04-10T10:01:24.089Z,108.62
2019-04-10T10:06:34.847Z,98.88
2019-04-10T10:11:42.718Z,101.96
2019-04-10T10:16:50.541Z,97.72
2019-04-10T10:22:01.843Z,94.00
2019-04-10T10:27:09.369Z,88.82
2019-04-10T10:32:17.148Z,90.81
2019-04-10T10:37:26.433Z,71.55
2019-04-10T10:42:33.851Z,107.45
2019-04-10T10:47:42.188Z,106.63
2019-04-10T10:52:52.137Z,94.18
2019-04-10T10:57:59.865Z,77.65
2019-04-10T11:03:09.916Z,94.47
2019-04-10T11:08:20.847Z,86.21
2019-04-10T11:13:19.014Z,83.30
2019-04-10T11:18:28.655Z,74.36
2019-04-10T11:23:37.612Z,75.08
2019-04-10T11:28:45.705Z,75.97
2019-04-10T11:33:56.426Z,86.65
2019-04-10T11:39:12.040Z,84.51
2019-04-10T11:44:15.990Z,88.79
2019-04-10T11:49:23.033Z,90.92
2019-04-10T11:54:32.787Z,92.95
2019-04-10T11:59:41.019Z,80.81
2019-04-10T12:04:53.889Z,70.15
2019-04-10T12:15:04.456Z,93.75
2019-04-10T12:20:13.670Z,74.64
2019-04-10T12:25:22.946Z,65.33
2019-04-10T12:30:32.206Z,59.58
2019-04-10T12:35:42.352Z,56.20
2019-04-10T12:40:50.902Z,93.19
2019-04-10T12:45:59.006Z,80.19
2019-04-10T12:51:08.309Z,64.45
2019-04-10T12:56:17.847Z,93.53
2019-04-10T13:01:26.911Z,148.71
2019-04-10T13:06:36.027Z,70.56
2019-04-10T13:11:45.252Z,63.28
2019-04-10T13:16:54.523Z,64.09
2019-04-10T13:22:04.081Z,96.19
2019-04-10T13:27:12.632Z,58.27
2019-04-10T13:32:21.799Z,55.74
2019-04-10T13:37:31.671Z,57.86
2019-04-10T13:42:39.753Z,94.36
2019-04-10T13:47:49.607Z,71.21
2019-04-10T13:52:57.643Z,60.89
2019-04-10T13:58:06.840Z,49.81
2019-04-10T14:03:16.454Z,109.27
2019-04-10T14:08:40.511Z,74.25
2019-04-10T14:13:34.064Z,65.06
2019-04-10T14:18:43.303Z,78.52
2019-04-10T14:23:53.502Z,72.73
2019-04-10T14:29:01.674Z,89.36
2019-04-10T14:34:10.565Z,114.89
2019-04-10T14:39:21.345Z,87.79
2019-04-10T14:44:27.150Z,192.38
2019-04-10T14:49:37.556Z,1999.64
2019-04-10T14:54:46.035Z,1999.63
2019-04-10T14:59:54.600Z,1999.64
2019-04-10T15:05:03.807Z,1999.65
2019-04-10T15:10:14.382Z,1999.65
2019-04-10T15:15:22.103Z,1999.67
2019-04-10T15:20:31.392Z,1999.65
2019-04-10T15:25:41.520Z,1999.64
2019-04-10T15:30:49.145Z,1999.67
2019-04-10T15:35:58.338Z,1999.67
2019-04-10T15:41:08.476Z,1999.69
2019-04-10T15:46:17.326Z,98.61
2019-04-10T15:51:16.532Z,74.41
2019-04-10T15:56:25.798Z,68.83
2019-04-10T16:01:35.138Z,69.89
2019-04-10T16:06:45.023Z,63.24
2019-04-10T16:11:54.042Z,63.33
2019-04-10T16:17:01.696Z,69.17
2019-04-10T16:22:10.891Z,75.11
2019-04-10T16:27:20.188Z,77.38
2019-04-10T16:32:29.226Z,93.04
2019-04-10T16:37:38.322Z,87.24
2019-04-10T16:42:48.582Z,81.83
2019-04-10T16:47:56.635Z,88.61
2019-04-10T16:53:05.468Z,88.76
2019-04-10T16:58:13.661Z,90.11
2019-04-10T17:03:30.637Z,88.61
2019-04-10T17:08:30.028Z,70.49
2019-04-10T17:13:38.502Z,97.64
2019-04-10T17:18:47.558Z,98.93
2019-04-10T17:23:56.682Z,72.28
2019-04-10T17:29:05.026Z,93.91
2019-04-10T17:34:12.363Z,100.78
2019-04-10T17:39:21.250Z,92.23
2019-04-10T17:44:31.997Z,83.00
2019-04-10T17:49:31.785Z,81.13
2019-04-10T17:54:39.833Z,77.82
2019-04-10T17:59:49.026Z,96.23
2019-04-10T18:04:58.216Z,88.18
2019-04-10T18:10:08.469Z,69.38
2019-04-10T18:15:16.077Z,98.23
2019-04-10T18:20:26.147Z,65.30
2019-04-10T18:25:34.095Z,98.95
2019-04-10T18:30:43.909Z,101.89
2019-04-10T18:35:51.649Z,60.25
2019-04-10T18:41:03.680Z,98.78
2019-04-10T18:46:14.355Z,103.71
2019-04-10T18:51:18.147Z,103.11
2019-04-10T18:56:27.413Z,107.68
2019-04-10T19:01:37.061Z,60.43
2019-04-10T19:06:45.385Z,62.21
2019-04-10T19:11:54.634Z,92.77
2019-04-10T19:17:03.753Z,61.42
2019-04-10T19:22:13.215Z,97.09
2019-04-10T19:27:22.245Z,61.69
2019-04-10T19:32:31.441Z,100.17
2019-04-10T19:37:40.893Z,102.84
2019-04-10T19:42:49.691Z,61.05
2019-04-10T19:47:59.065Z,100.50
2019-04-10T19:53:08.972Z,106.25
2019-04-10T19:58:17.620Z,111.06
2019-04-10T20:03:25.761Z,107.21
2019-04-10T20:08:34.206Z,107.18
2019-04-10T20:13:43.289Z,110.24
2019-04-10T20:18:52.913Z,110.89
2019-04-10T20:24:01.075Z,111.22
2019-04-10T20:29:10.823Z,54.57
2019-04-10T20:34:19.193Z,87.54
2019-04-10T20:39:29.424Z,111.28
2019-04-10T20:44:37.003Z,116.64
2019-04-10T20:49:46.759Z,139.72
2019-04-10T20:54:55.262Z,120.44
2019-04-10T21:00:03.645Z,114.27
2019-04-10T21:05:14.858Z,114.35
2019-04-10T21:10:21.517Z,114.21
2019-04-10T21:15:30.603Z,111.82
2019-04-10T21:20:40.900Z,115.32
2019-04-10T21:25:39.770Z,114.81
2019-04-10T21:30:49.005Z,130.89
2019-04-10T21:35:58.123Z,114.24
2019-04-10T21:41:08.741Z,53.88
2019-04-10T21:46:16.488Z,84.14
2019-04-10T21:51:25.405Z,53.29
2019-04-10T21:56:33.497Z,85.08
2019-04-10T22:01:42.872Z,108.50
2019-04-10T22:06:51.957Z,116.94
2019-04-10T22:12:01.592Z,136.03
2019-04-10T22:17:10.763Z,115.90
2019-04-10T22:22:20.076Z,114.42
2019-04-10T22:27:27.698Z,53.12
2019-04-10T22:32:36.955Z,84.16
2019-04-10T22:37:46.316Z,54.55
2019-04-10T22:42:55.465Z,85.74
2019-04-10T22:48:04.477Z,110.34
2019-04-10T22:53:13.713Z,164.97
2019-04-10T22:58:22.824Z,54.37
2019-04-10T23:03:32.234Z,55.57
2019-04-10T23:08:42.021Z,58.49
2019-04-10T23:24:06.171Z,59.28
2019-04-10T23:29:15.840Z,100.63
2019-04-10T23:34:24.958Z,112.01
2019-04-10T23:39:32.547Z,112.60
2019-04-10T23:44:42.835Z,59.45
2019-04-10T23:49:50.453Z,101.00
2019-04-10T23:54:59.729Z,113.51
